sensor_id;sensor_type;location;lat;lon;timestamp;temperature;humidity
42755;DHT22;28407;51.830;5.684;2022-07-22T00:01:23;20.90;69.60
42755;DHT22;28407;51.830;5.684;2022-07-22T00:03:24;20.90;69.60
42755;DHT22;28407;51.830;5.684;2022-07-22T00:05:24;20.90;69.60
42755;DHT22;28407;51.830;5.684;2022-07-22T00:07:25;20.90;69.60
42755;DHT22;28407;51.830;5.684;2022-07-22T00:09:28;20.90;69.60
42755;DHT22;28407;51.830;5.684;2022-07-22T00:11:29;20.90;69.60
42755;DHT22;28407;51.830;5.684;2022-07-22T00:13:30;20.90;69.60
42755;DHT22;28407;51.830;5.684;2022-07-22T00:15:31;20.90;69.60
42755;DHT22;28407;51.830;5.684;2022-07-22T00:17:32;20.90;69.60
42755;DHT22;28407;51.830;5.684;2022-07-22T00:19:33;20.80;69.60
42755;DHT22;28407;51.830;5.684;2022-07-22T00:21:33;20.80;69.60
42755;DHT22;28407;51.830;5.684;2022-07-22T00:23:34;20.80;69.60
42755;DHT22;28407;51.830;5.684;2022-07-22T00:25:35;20.80;69.70
42755;DHT22;28407;51.830;5.684;2022-07-22T00:27:35;20.80;69.70
42755;DHT22;28407;51.830;5.684;2022-07-22T00:29:36;20.80;69.70
42755;DHT22;28407;51.830;5.684;2022-07-22T00:31:37;20.80;69.70
42755;DHT22;28407;51.830;5.684;2022-07-22T00:33:38;20.80;69.70
42755;DHT22;28407;51.830;5.684;2022-07-22T00:35:38;20.80;69.70
42755;DHT22;28407;51.830;5.684;2022-07-22T00:37:39;20.80;69.70
42755;DHT22;28407;51.830;5.684;2022-07-22T00:39:40;20.80;69.80
42755;DHT22;28407;51.830;5.684;2022-07-22T00:41:40;20.80;69.80
42755;DHT22;28407;51.830;5.684;2022-07-22T00:44:01;20.80;69.80
42755;DHT22;28407;51.830;5.684;2022-07-22T00:46:02;20.80;69.90
42755;DHT22;28407;51.830;5.684;2022-07-22T00:48:03;20.80;69.80
42755;DHT22;28407;51.830;5.684;2022-07-22T00:50:05;20.80;69.90
42755;DHT22;28407;51.830;5.684;2022-07-22T00:52:05;20.80;69.90
42755;DHT22;28407;51.830;5.684;2022-07-22T00:54:07;20.80;70.00
42755;DHT22;28407;51.830;5.684;2022-07-22T00:56:08;20.80;70.00
42755;DHT22;28407;51.830;5.684;2022-07-22T00:58:09;20.80;70.00
42755;DHT22;28407;51.830;5.684;2022-07-22T01:00:14;20.80;70.00
42755;DHT22;28407;51.830;5.684;2022-07-22T01:02:15;20.80;70.00
42755;DHT22;28407;51.830;5.684;2022-07-22T01:04:16;20.80;70.10
42755;DHT22;28407;51.830;5.684;2022-07-22T01:06:17;20.80;70.70
42755;DHT22;28407;51.830;5.684;2022-07-22T01:08:18;20.80;70.10
42755;DHT22;28407;51.830;5.684;2022-07-22T01:10:19;20.80;70.00
42755;DHT22;28407;51.830;5.684;2022-07-22T01:12:19;20.80;70.00
42755;DHT22;28407;51.830;5.684;2022-07-22T01:14:20;20.70;70.00
42755;DHT22;28407;51.830;5.684;2022-07-22T01:16:21;20.70;70.00
42755;DHT22;28407;51.830;5.684;2022-07-22T01:18:21;20.70;70.00
42755;DHT22;28407;51.830;5.684;2022-07-22T01:20:23;20.70;70.00
42755;DHT22;28407;51.830;5.684;2022-07-22T01:22:27;20.70;70.00
42755;DHT22;28407;51.830;5.684;2022-07-22T01:24:27;20.60;70.00
42755;DHT22;28407;51.830;5.684;2022-07-22T01:26:29;20.70;70.00
42755;DHT22;28407;51.830;5.684;2022-07-22T01:28:31;20.70;70.00
42755;DHT22;28407;51.830;5.684;2022-07-22T01:30:32;20.70;70.00
42755;DHT22;28407;51.830;5.684;2022-07-22T01:32:32;20.70;69.90
42755;DHT22;28407;51.830;5.684;2022-07-22T01:34:33;20.60;69.90
42755;DHT22;28407;51.830;5.684;2022-07-22T01:36:33;20.60;69.90
42755;DHT22;28407;51.830;5.684;2022-07-22T01:38:34;20.60;69.90
42755;DHT22;28407;51.830;5.684;2022-07-22T01:40:35;20.60;69.90
42755;DHT22;28407;51.830;5.684;2022-07-22T01:42:36;20.60;69.90
42755;DHT22;28407;51.830;5.684;2022-07-22T01:44:37;20.60;69.90
42755;DHT22;28407;51.830;5.684;2022-07-22T01:46:38;20.60;69.90
42755;DHT22;28407;51.830;5.684;2022-07-22T01:48:39;20.60;69.90
42755;DHT22;28407;51.830;5.684;2022-07-22T01:50:41;20.60;69.90
42755;DHT22;28407;51.830;5.684;2022-07-22T01:52:44;20.60;69.90
42755;DHT22;28407;51.830;5.684;2022-07-22T01:54:44;20.60;69.90
42755;DHT22;28407;51.830;5.684;2022-07-22T01:56:45;20.60;69.90
42755;DHT22;28407;51.830;5.684;2022-07-22T01:58:46;20.60;69.90
42755;DHT22;28407;51.830;5.684;2022-07-22T02:00:48;20.60;69.90
42755;DHT22;28407;51.830;5.684;2022-07-22T02:02:48;20.60;69.90
42755;DHT22;28407;51.830;5.684;2022-07-22T02:04:50;20.60;69.90
42755;DHT22;28407;51.830;5.684;2022-07-22T02:06:50;20.50;69.80
42755;DHT22;28407;51.830;5.684;2022-07-22T02:08:51;20.60;69.90
42755;DHT22;28407;51.830;5.684;2022-07-22T02:11:04;20.60;69.80
42755;DHT22;28407;51.830;5.684;2022-07-22T02:13:05;20.60;69.80
42755;DHT22;28407;51.830;5.684;2022-07-22T02:15:07;20.60;69.80
42755;DHT22;28407;51.830;5.684;2022-07-22T02:17:08;20.60;69.80
42755;DHT22;28407;51.830;5.684;2022-07-22T02:19:09;20.60;69.70
42755;DHT22;28407;51.830;5.684;2022-07-22T02:21:10;20.60;69.80
42755;DHT22;28407;51.830;5.684;2022-07-22T02:23:10;20.60;69.80
42755;DHT22;28407;51.830;5.684;2022-07-22T02:25:12;20.60;69.70
42755;DHT22;28407;51.830;5.684;2022-07-22T02:27:14;20.50;69.70
42755;DHT22;28407;51.830;5.684;2022-07-22T02:29:16;20.50;69.70
42755;DHT22;28407;51.830;5.684;2022-07-22T02:31:16;20.50;69.70
42755;DHT22;28407;51.830;5.684;2022-07-22T02:33:17;20.50;69.70
42755;DHT22;28407;51.830;5.684;2022-07-22T02:35:18;20.50;69.70
42755;DHT22;28407;51.830;5.684;2022-07-22T02:37:19;20.50;69.70
42755;DHT22;28407;51.830;5.684;2022-07-22T02:39:19;20.50;69.60
42755;DHT22;28407;51.830;5.684;2022-07-22T02:41:20;20.50;69.70
42755;DHT22;28407;51.830;5.684;2022-07-22T02:43:26;20.50;69.70
42755;DHT22;28407;51.830;5.684;2022-07-22T02:45:28;20.40;69.70
42755;DHT22;28407;51.830;5.684;2022-07-22T02:47:28;20.40;69.70
42755;DHT22;28407;51.830;5.684;2022-07-22T02:49:29;20.40;69.70
42755;DHT22;28407;51.830;5.684;2022-07-22T02:51:31;20.40;69.80
42755;DHT22;28407;51.830;5.684;2022-07-22T02:53:31;20.40;69.80
42755;DHT22;28407;51.830;5.684;2022-07-22T02:55:34;20.40;69.70
42755;DHT22;28407;51.830;5.684;2022-07-22T02:57:37;20.40;69.70
42755;DHT22;28407;51.830;5.684;2022-07-22T02:59:39;20.40;69.70
42755;DHT22;28407;51.830;5.684;2022-07-22T03:01:40;20.40;69.70
42755;DHT22;28407;51.830;5.684;2022-07-22T03:03:41;20.30;69.70
42755;DHT22;28407;51.830;5.684;2022-07-22T03:05:41;20.30;69.80
42755;DHT22;28407;51.830;5.684;2022-07-22T03:07:56;20.30;69.80
42755;DHT22;28407;51.830;5.684;2022-07-22T03:09:57;20.30;69.80
42755;DHT22;28407;51.830;5.684;2022-07-22T03:11:58;20.30;69.90
42755;DHT22;28407;51.830;5.684;2022-07-22T03:13:58;20.20;69.80
42755;DHT22;28407;51.830;5.684;2022-07-22T03:15:59;20.20;69.80
42755;DHT22;28407;51.830;5.684;2022-07-22T03:17:59;20.20;69.80
42755;DHT22;28407;51.830;5.684;2022-07-22T03:20:05;20.20;69.80
42755;DHT22;28407;51.830;5.684;2022-07-22T03:22:06;20.20;69.80
42755;DHT22;28407;51.830;5.684;2022-07-22T03:24:07;20.20;69.80
42755;DHT22;28407;51.830;5.684;2022-07-22T03:26:08;20.30;69.90
42755;DHT22;28407;51.830;5.684;2022-07-22T03:28:09;20.20;69.80
42755;DHT22;28407;51.830;5.684;2022-07-22T03:30:11;20.30;69.80
42755;DHT22;28407;51.830;5.684;2022-07-22T03:32:13;20.20;69.80
42755;DHT22;28407;51.830;5.684;2022-07-22T03:34:20;20.20;69.90
42755;DHT22;28407;51.830;5.684;2022-07-22T03:36:29;20.30;70.00
42755;DHT22;28407;51.830;5.684;2022-07-22T03:38:30;20.20;70.00
42755;DHT22;28407;51.830;5.684;2022-07-22T03:40:31;20.20;70.10
42755;DHT22;28407;51.830;5.684;2022-07-22T03:42:33;20.20;70.10
42755;DHT22;28407;51.830;5.684;2022-07-22T03:44:33;20.20;70.20
42755;DHT22;28407;51.830;5.684;2022-07-22T03:46:36;20.20;70.20
42755;DHT22;28407;51.830;5.684;2022-07-22T03:48:37;20.20;70.30
42755;DHT22;28407;51.830;5.684;2022-07-22T03:50:38;20.20;70.20
42755;DHT22;28407;51.830;5.684;2022-07-22T03:52:40;20.20;70.30
42755;DHT22;28407;51.830;5.684;2022-07-22T03:54:43;20.20;70.30
42755;DHT22;28407;51.830;5.684;2022-07-22T03:56:44;20.20;70.30
42755;DHT22;28407;51.830;5.684;2022-07-22T03:58:45;20.20;70.30
42755;DHT22;28407;51.830;5.684;2022-07-22T04:00:45;20.20;70.40
42755;DHT22;28407;51.830;5.684;2022-07-22T04:02:46;20.20;70.70
42755;DHT22;28407;51.830;5.684;2022-07-22T04:04:53;20.20;70.50
42755;DHT22;28407;51.830;5.684;2022-07-22T04:06:55;20.20;70.50
42755;DHT22;28407;51.830;5.684;2022-07-22T04:09:02;20.20;70.50
42755;DHT22;28407;51.830;5.684;2022-07-22T04:11:03;20.20;70.50
42755;DHT22;28407;51.830;5.684;2022-07-22T04:13:04;20.20;70.50
42755;DHT22;28407;51.830;5.684;2022-07-22T04:15:16;20.20;70.50
42755;DHT22;28407;51.830;5.684;2022-07-22T04:17:17;20.20;70.50
42755;DHT22;28407;51.830;5.684;2022-07-22T04:19:18;20.20;70.50
42755;DHT22;28407;51.830;5.684;2022-07-22T04:21:30;20.20;70.60
42755;DHT22;28407;51.830;5.684;2022-07-22T04:23:33;20.20;70.60
42755;DHT22;28407;51.830;5.684;2022-07-22T04:25:54;20.20;70.60
42755;DHT22;28407;51.830;5.684;2022-07-22T04:27:55;20.20;70.50
42755;DHT22;28407;51.830;5.684;2022-07-22T04:29:56;20.20;70.50
42755;DHT22;28407;51.830;5.684;2022-07-22T04:31:57;20.20;70.50
42755;DHT22;28407;51.830;5.684;2022-07-22T04:33:58;20.20;70.50
42755;DHT22;28407;51.830;5.684;2022-07-22T04:36:00;20.20;70.50
42755;DHT22;28407;51.830;5.684;2022-07-22T04:38:00;20.20;70.50
42755;DHT22;28407;51.830;5.684;2022-07-22T04:40:01;20.20;70.50
42755;DHT22;28407;51.830;5.684;2022-07-22T04:42:03;20.20;70.50
42755;DHT22;28407;51.830;5.684;2022-07-22T04:44:06;20.20;70.50
42755;DHT22;28407;51.830;5.684;2022-07-22T04:46:08;20.20;70.50
42755;DHT22;28407;51.830;5.684;2022-07-22T04:48:13;20.20;70.50
42755;DHT22;28407;51.830;5.684;2022-07-22T04:50:14;20.20;70.50
42755;DHT22;28407;51.830;5.684;2022-07-22T04:52:15;20.20;70.50
42755;DHT22;28407;51.830;5.684;2022-07-22T04:54:21;20.20;70.50
42755;DHT22;28407;51.830;5.684;2022-07-22T04:56:26;20.20;70.50
42755;DHT22;28407;51.830;5.684;2022-07-22T04:58:26;20.20;70.50
42755;DHT22;28407;51.830;5.684;2022-07-22T05:00:28;20.20;70.50
42755;DHT22;28407;51.830;5.684;2022-07-22T05:02:30;20.30;70.50
42755;DHT22;28407;51.830;5.684;2022-07-22T05:04:30;20.30;70.40
42755;DHT22;28407;51.830;5.684;2022-07-22T05:06:31;20.30;70.40
42755;DHT22;28407;51.830;5.684;2022-07-22T05:08:32;20.30;70.40
42755;DHT22;28407;51.830;5.684;2022-07-22T05:10:33;20.30;70.40
42755;DHT22;28407;51.830;5.684;2022-07-22T05:12:34;20.30;70.40
42755;DHT22;28407;51.830;5.684;2022-07-22T05:14:34;20.30;70.50
42755;DHT22;28407;51.830;5.684;2022-07-22T05:16:36;20.30;70.40
42755;DHT22;28407;51.830;5.684;2022-07-22T05:18:40;20.40;70.50
42755;DHT22;28407;51.830;5.684;2022-07-22T05:20:44;20.40;70.60
42755;DHT22;28407;51.830;5.684;2022-07-22T05:22:44;20.40;70.60
42755;DHT22;28407;51.830;5.684;2022-07-22T05:24:49;20.40;70.60
42755;DHT22;28407;51.830;5.684;2022-07-22T05:26:51;20.40;70.60
42755;DHT22;28407;51.830;5.684;2022-07-22T05:28:51;20.40;70.50
42755;DHT22;28407;51.830;5.684;2022-07-22T05:30:52;20.40;70.40
42755;DHT22;28407;51.830;5.684;2022-07-22T05:32:54;20.40;70.40
42755;DHT22;28407;51.830;5.684;2022-07-22T05:35:15;20.40;70.40
42755;DHT22;28407;51.830;5.684;2022-07-22T05:37:16;20.40;70.30
42755;DHT22;28407;51.830;5.684;2022-07-22T05:39:17;20.50;70.30
42755;DHT22;28407;51.830;5.684;2022-07-22T05:41:18;20.40;70.30
42755;DHT22;28407;51.830;5.684;2022-07-22T05:43:18;20.40;70.30
42755;DHT22;28407;51.830;5.684;2022-07-22T05:45:19;20.50;70.40
42755;DHT22;28407;51.830;5.684;2022-07-22T05:47:20;20.50;70.40
42755;DHT22;28407;51.830;5.684;2022-07-22T05:49:21;20.40;70.30
42755;DHT22;28407;51.830;5.684;2022-07-22T05:51:29;20.40;70.30
42755;DHT22;28407;51.830;5.684;2022-07-22T05:53:31;20.50;70.50
42755;DHT22;28407;51.830;5.684;2022-07-22T05:55:31;20.50;70.50
42755;DHT22;28407;51.830;5.684;2022-07-22T05:57:32;20.50;70.40
42755;DHT22;28407;51.830;5.684;2022-07-22T05:59:33;20.50;70.40
42755;DHT22;28407;51.830;5.684;2022-07-22T06:01:34;20.50;70.40
42755;DHT22;28407;51.830;5.684;2022-07-22T06:03:42;20.60;70.30
42755;DHT22;28407;51.830;5.684;2022-07-22T06:05:46;20.60;70.30
42755;DHT22;28407;51.830;5.684;2022-07-22T06:07:46;20.60;70.20
42755;DHT22;28407;51.830;5.684;2022-07-22T06:09:54;20.70;70.20
42755;DHT22;28407;51.830;5.684;2022-07-22T06:11:58;20.70;70.10
42755;DHT22;28407;51.830;5.684;2022-07-22T06:13:59;20.70;70.10
42755;DHT22;28407;51.830;5.684;2022-07-22T06:16:00;20.70;70.10
42755;DHT22;28407;51.830;5.684;2022-07-22T06:18:00;20.70;70.00
42755;DHT22;28407;51.830;5.684;2022-07-22T06:20:01;20.80;70.00
42755;DHT22;28407;51.830;5.684;2022-07-22T06:22:02;20.70;69.80
42755;DHT22;28407;51.830;5.684;2022-07-22T06:24:03;20.80;69.70
42755;DHT22;28407;51.830;5.684;2022-07-22T06:26:04;20.80;69.50
42755;DHT22;28407;51.830;5.684;2022-07-22T06:28:08;20.80;69.40
42755;DHT22;28407;51.830;5.684;2022-07-22T06:30:09;20.80;69.20
42755;DHT22;28407;51.830;5.684;2022-07-22T06:32:10;20.80;68.90
42755;DHT22;28407;51.830;5.684;2022-07-22T06:34:11;20.90;68.90
42755;DHT22;28407;51.830;5.684;2022-07-22T06:36:34;20.90;68.80
42755;DHT22;28407;51.830;5.684;2022-07-22T06:38:34;20.90;68.60
42755;DHT22;28407;51.830;5.684;2022-07-22T06:40:54;20.90;68.50
42755;DHT22;28407;51.830;5.684;2022-07-22T06:43:10;20.90;68.40
42755;DHT22;28407;51.830;5.684;2022-07-22T06:45:31;20.90;68.20
42755;DHT22;28407;51.830;5.684;2022-07-22T06:47:45;21.00;68.10
42755;DHT22;28407;51.830;5.684;2022-07-22T06:49:49;21.00;67.90
42755;DHT22;28407;51.830;5.684;2022-07-22T06:51:49;21.00;67.80
42755;DHT22;28407;51.830;5.684;2022-07-22T06:53:51;21.00;67.60
42755;DHT22;28407;51.830;5.684;2022-07-22T06:55:52;21.00;67.50
42755;DHT22;28407;51.830;5.684;2022-07-22T06:57:53;21.10;67.50
42755;DHT22;28407;51.830;5.684;2022-07-22T06:59:54;21.10;67.40
42755;DHT22;28407;51.830;5.684;2022-07-22T07:01:55;21.10;67.40
42755;DHT22;28407;51.830;5.684;2022-07-22T07:03:55;21.10;67.30
42755;DHT22;28407;51.830;5.684;2022-07-22T07:05:56;21.20;67.20
42755;DHT22;28407;51.830;5.684;2022-07-22T07:07:58;21.20;67.00
42755;DHT22;28407;51.830;5.684;2022-07-22T07:09:59;21.20;66.90
42755;DHT22;28407;51.830;5.684;2022-07-22T07:12:08;21.20;66.90
42755;DHT22;28407;51.830;5.684;2022-07-22T07:14:44;21.20;66.80
42755;DHT22;28407;51.830;5.684;2022-07-22T07:16:45;21.20;66.60
42755;DHT22;28407;51.830;5.684;2022-07-22T07:18:46;21.30;66.50
42755;DHT22;28407;51.830;5.684;2022-07-22T07:20:47;21.30;66.50
42755;DHT22;28407;51.830;5.684;2022-07-22T07:22:47;21.30;66.40
42755;DHT22;28407;51.830;5.684;2022-07-22T07:24:49;21.30;66.40
42755;DHT22;28407;51.830;5.684;2022-07-22T07:26:49;21.30;66.30
42755;DHT22;28407;51.830;5.684;2022-07-22T07:28:50;21.40;66.20
42755;DHT22;28407;51.830;5.684;2022-07-22T07:31:02;21.40;66.10
42755;DHT22;28407;51.830;5.684;2022-07-22T07:33:03;21.40;66.00
42755;DHT22;28407;51.830;5.684;2022-07-22T07:35:05;21.40;65.90
42755;DHT22;28407;51.830;5.684;2022-07-22T07:37:07;21.50;65.80
42755;DHT22;28407;51.830;5.684;2022-07-22T07:39:08;21.50;65.60
42755;DHT22;28407;51.830;5.684;2022-07-22T07:41:09;21.50;65.40
42755;DHT22;28407;51.830;5.684;2022-07-22T07:43:13;21.60;65.40
42755;DHT22;28407;51.830;5.684;2022-07-22T07:45:13;21.60;65.20
42755;DHT22;28407;51.830;5.684;2022-07-22T07:47:14;21.60;65.10
42755;DHT22;28407;51.830;5.684;2022-07-22T07:49:17;21.70;65.00
42755;DHT22;28407;51.830;5.684;2022-07-22T07:51:18;21.70;64.90
42755;DHT22;28407;51.830;5.684;2022-07-22T07:53:19;21.70;64.80
42755;DHT22;28407;51.830;5.684;2022-07-22T07:55:20;21.80;64.70
42755;DHT22;28407;51.830;5.684;2022-07-22T07:57:22;21.80;64.50
42755;DHT22;28407;51.830;5.684;2022-07-22T07:59:22;21.80;64.40
42755;DHT22;28407;51.830;5.684;2022-07-22T08:01:23;21.80;64.20
42755;DHT22;28407;51.830;5.684;2022-07-22T08:03:24;21.90;64.10
42755;DHT22;28407;51.830;5.684;2022-07-22T08:05:25;21.90;63.90
42755;DHT22;28407;51.830;5.684;2022-07-22T08:07:26;21.90;63.70
42755;DHT22;28407;51.830;5.684;2022-07-22T08:09:27;22.00;63.60
42755;DHT22;28407;51.830;5.684;2022-07-22T08:11:28;22.00;63.50
42755;DHT22;28407;51.830;5.684;2022-07-22T08:13:47;22.00;63.40
42755;DHT22;28407;51.830;5.684;2022-07-22T08:16:11;22.00;63.20
42755;DHT22;28407;51.830;5.684;2022-07-22T08:18:13;22.00;63.00
42755;DHT22;28407;51.830;5.684;2022-07-22T08:20:13;22.10;62.80
42755;DHT22;28407;51.830;5.684;2022-07-22T08:22:14;22.10;62.70
42755;DHT22;28407;51.830;5.684;2022-07-22T08:24:16;22.10;62.60
42755;DHT22;28407;51.830;5.684;2022-07-22T08:26:18;22.20;62.50
42755;DHT22;28407;51.830;5.684;2022-07-22T08:28:19;22.20;62.40
42755;DHT22;28407;51.830;5.684;2022-07-22T08:30:19;22.30;62.30
42755;DHT22;28407;51.830;5.684;2022-07-22T08:32:20;22.30;62.10
42755;DHT22;28407;51.830;5.684;2022-07-22T08:34:22;22.40;62.00
42755;DHT22;28407;51.830;5.684;2022-07-22T08:36:23;22.40;61.80
42755;DHT22;28407;51.830;5.684;2022-07-22T08:38:23;22.50;61.70
42755;DHT22;28407;51.830;5.684;2022-07-22T08:40:24;22.60;61.40
42755;DHT22;28407;51.830;5.684;2022-07-22T08:42:26;22.60;61.20
42755;DHT22;28407;51.830;5.684;2022-07-22T08:44:32;22.60;61.00
42755;DHT22;28407;51.830;5.684;2022-07-22T08:46:33;22.70;60.80
42755;DHT22;28407;51.830;5.684;2022-07-22T08:48:52;22.70;60.70
42755;DHT22;28407;51.830;5.684;2022-07-22T08:51:00;22.70;60.50
42755;DHT22;28407;51.830;5.684;2022-07-22T08:53:14;22.70;60.40
42755;DHT22;28407;51.830;5.684;2022-07-22T08:55:16;22.70;60.30
42755;DHT22;28407;51.830;5.684;2022-07-22T08:57:18;22.70;60.30
42755;DHT22;28407;51.830;5.684;2022-07-22T08:59:19;22.70;60.30
42755;DHT22;28407;51.830;5.684;2022-07-22T09:01:20;22.70;60.20
42755;DHT22;28407;51.830;5.684;2022-07-22T09:03:25;22.80;60.40
42755;DHT22;28407;51.830;5.684;2022-07-22T09:05:33;22.70;60.20
42755;DHT22;28407;51.830;5.684;2022-07-22T09:07:36;22.70;60.10
42755;DHT22;28407;51.830;5.684;2022-07-22T09:09:50;22.70;60.10
42755;DHT22;28407;51.830;5.684;2022-07-22T09:12:14;22.70;60.20
42755;DHT22;28407;51.830;5.684;2022-07-22T09:14:48;22.60;60.20
42755;DHT22;28407;51.830;5.684;2022-07-22T09:17:07;22.70;60.10
42755;DHT22;28407;51.830;5.684;2022-07-22T09:19:41;22.70;60.00
42755;DHT22;28407;51.830;5.684;2022-07-22T09:22:04;22.70;60.10
42755;DHT22;28407;51.830;5.684;2022-07-22T09:24:33;22.70;60.00
42755;DHT22;28407;51.830;5.684;2022-07-22T09:26:54;22.80;59.80
42755;DHT22;28407;51.830;5.684;2022-07-22T09:29:15;22.80;59.70
42755;DHT22;28407;51.830;5.684;2022-07-22T09:31:35;22.80;59.60
42755;DHT22;28407;51.830;5.684;2022-07-22T09:33:46;22.80;59.50
42755;DHT22;28407;51.830;5.684;2022-07-22T09:36:03;22.80;59.50
42755;DHT22;28407;51.830;5.684;2022-07-22T09:38:07;22.80;59.50
42755;DHT22;28407;51.830;5.684;2022-07-22T09:40:48;22.70;59.40
42755;DHT22;28407;51.830;5.684;2022-07-22T09:44:47;22.90;59.20
42755;DHT22;28407;51.830;5.684;2022-07-22T09:46:56;22.90;59.20
42755;DHT22;28407;51.830;5.684;2022-07-22T09:49:35;22.90;59.10
42755;DHT22;28407;51.830;5.684;2022-07-22T09:52:08;23.00;58.90
42755;DHT22;28407;51.830;5.684;2022-07-22T09:54:31;22.90;59.00
42755;DHT22;28407;51.830;5.684;2022-07-22T09:56:32;22.90;59.00
42755;DHT22;28407;51.830;5.684;2022-07-22T09:58:34;22.90;59.00
42755;DHT22;28407;51.830;5.684;2022-07-22T10:00:36;22.90;59.00
42755;DHT22;28407;51.830;5.684;2022-07-22T10:02:45;23.00;59.60
42755;DHT22;28407;51.830;5.684;2022-07-22T10:04:47;23.00;59.00
42755;DHT22;28407;51.830;5.684;2022-07-22T10:06:53;23.10;58.90
42755;DHT22;28407;51.830;5.684;2022-07-22T10:08:58;23.10;58.80
42755;DHT22;28407;51.830;5.684;2022-07-22T10:11:02;23.20;58.70
42755;DHT22;28407;51.830;5.684;2022-07-22T10:13:06;23.20;58.70
42755;DHT22;28407;51.830;5.684;2022-07-22T10:15:08;23.20;58.60
42755;DHT22;28407;51.830;5.684;2022-07-22T10:17:09;23.30;58.60
42755;DHT22;28407;51.830;5.684;2022-07-22T10:19:10;23.30;58.60
42755;DHT22;28407;51.830;5.684;2022-07-22T10:21:11;23.20;58.70
42755;DHT22;28407;51.830;5.684;2022-07-22T10:23:13;23.30;58.70
42755;DHT22;28407;51.830;5.684;2022-07-22T10:25:15;23.20;58.70
42755;DHT22;28407;51.830;5.684;2022-07-22T10:27:50;23.20;58.70
42755;DHT22;28407;51.830;5.684;2022-07-22T10:29:51;23.30;58.60
42755;DHT22;28407;51.830;5.684;2022-07-22T10:34:18;23.40;58.40
42755;DHT22;28407;51.830;5.684;2022-07-22T10:36:35;23.40;58.20
42755;DHT22;28407;51.830;5.684;2022-07-22T10:38:36;23.50;58.10
42755;DHT22;28407;51.830;5.684;2022-07-22T10:45:09;23.40;58.30
42755;DHT22;28407;51.830;5.684;2022-07-22T10:47:10;23.40;58.20
42755;DHT22;28407;51.830;5.684;2022-07-22T10:49:11;23.40;58.10
42755;DHT22;28407;51.830;5.684;2022-07-22T10:53:19;23.40;57.90
42755;DHT22;28407;51.830;5.684;2022-07-22T10:55:21;23.50;57.70
42755;DHT22;28407;51.830;5.684;2022-07-22T10:57:31;23.50;57.30
42755;DHT22;28407;51.830;5.684;2022-07-22T10:59:32;23.60;57.10
42755;DHT22;28407;51.830;5.684;2022-07-22T11:01:33;23.70;57.00
42755;DHT22;28407;51.830;5.684;2022-07-22T11:03:35;23.80;56.90
42755;DHT22;28407;51.830;5.684;2022-07-22T11:05:36;23.90;56.70
42755;DHT22;28407;51.830;5.684;2022-07-22T11:07:44;24.00;56.70
42755;DHT22;28407;51.830;5.684;2022-07-22T11:09:45;24.10;56.60
42755;DHT22;28407;51.830;5.684;2022-07-22T11:11:53;24.10;56.60
42755;DHT22;28407;51.830;5.684;2022-07-22T11:13:54;24.20;56.60
42755;DHT22;28407;51.830;5.684;2022-07-22T11:15:55;24.20;56.60
42755;DHT22;28407;51.830;5.684;2022-07-22T11:17:57;24.20;56.70
42755;DHT22;28407;51.830;5.684;2022-07-22T11:19:57;24.20;56.70
42755;DHT22;28407;51.830;5.684;2022-07-22T11:22:07;24.20;56.70
42755;DHT22;28407;51.830;5.684;2022-07-22T11:24:08;24.30;56.70
42755;DHT22;28407;51.830;5.684;2022-07-22T11:26:11;24.30;57.20
42755;DHT22;28407;51.830;5.684;2022-07-22T11:28:13;24.40;56.40
42755;DHT22;28407;51.830;5.684;2022-07-22T11:30:14;24.40;56.40
42755;DHT22;28407;51.830;5.684;2022-07-22T11:32:15;24.40;56.40
42755;DHT22;28407;51.830;5.684;2022-07-22T11:34:16;24.40;56.30
42755;DHT22;28407;51.830;5.684;2022-07-22T11:36:17;24.40;56.20
42755;DHT22;28407;51.830;5.684;2022-07-22T11:38:17;24.50;56.10
42755;DHT22;28407;51.830;5.684;2022-07-22T11:40:18;24.40;56.00
42755;DHT22;28407;51.830;5.684;2022-07-22T11:42:18;24.40;56.10
42755;DHT22;28407;51.830;5.684;2022-07-22T11:44:21;24.30;56.00
42755;DHT22;28407;51.830;5.684;2022-07-22T11:46:22;24.30;56.00
42755;DHT22;28407;51.830;5.684;2022-07-22T11:48:26;24.40;55.90
42755;DHT22;28407;51.830;5.684;2022-07-22T11:50:31;24.50;55.70
42755;DHT22;28407;51.830;5.684;2022-07-22T11:52:31;24.50;55.40
42755;DHT22;28407;51.830;5.684;2022-07-22T11:54:32;24.60;55.30
42755;DHT22;28407;51.830;5.684;2022-07-22T11:56:34;24.60;55.10
42755;DHT22;28407;51.830;5.684;2022-07-22T11:58:39;24.60;55.00
42755;DHT22;28407;51.830;5.684;2022-07-22T12:00:40;24.70;54.90
42755;DHT22;28407;51.830;5.684;2022-07-22T12:02:41;24.70;54.80
42755;DHT22;28407;51.830;5.684;2022-07-22T12:04:43;24.70;54.70
42755;DHT22;28407;51.830;5.684;2022-07-22T12:06:46;24.70;54.80
42755;DHT22;28407;51.830;5.684;2022-07-22T12:09:03;24.70;54.80
42755;DHT22;28407;51.830;5.684;2022-07-22T12:11:05;24.70;54.70
42755;DHT22;28407;51.830;5.684;2022-07-22T12:13:05;24.70;54.60
42755;DHT22;28407;51.830;5.684;2022-07-22T12:15:07;24.80;54.50
42755;DHT22;28407;51.830;5.684;2022-07-22T12:17:09;24.80;54.20
42755;DHT22;28407;51.830;5.684;2022-07-22T12:19:12;24.80;54.10
42755;DHT22;28407;51.830;5.684;2022-07-22T12:21:13;24.90;53.90
42755;DHT22;28407;51.830;5.684;2022-07-22T12:23:14;25.00;53.70
42755;DHT22;28407;51.830;5.684;2022-07-22T12:25:15;25.10;53.50
42755;DHT22;28407;51.830;5.684;2022-07-22T12:27:18;25.20;53.30
42755;DHT22;28407;51.830;5.684;2022-07-22T12:31:52;25.60;52.80
42755;DHT22;28407;51.830;5.684;2022-07-22T12:33:53;25.80;52.50
42755;DHT22;28407;51.830;5.684;2022-07-22T12:36:03;25.90;52.40
42755;DHT22;28407;51.830;5.684;2022-07-22T12:38:08;25.90;52.20
42755;DHT22;28407;51.830;5.684;2022-07-22T12:40:20;25.90;52.10
42755;DHT22;28407;51.830;5.684;2022-07-22T12:42:21;25.80;52.10
42755;DHT22;28407;51.830;5.684;2022-07-22T12:44:25;25.80;52.40
42755;DHT22;28407;51.830;5.684;2022-07-22T12:46:25;25.80;52.40
42755;DHT22;28407;51.830;5.684;2022-07-22T12:48:29;25.70;52.10
42755;DHT22;28407;51.830;5.684;2022-07-22T12:50:32;25.70;52.10
42755;DHT22;28407;51.830;5.684;2022-07-22T12:52:33;25.70;52.00
42755;DHT22;28407;51.830;5.684;2022-07-22T12:54:34;25.80;51.90
42755;DHT22;28407;51.830;5.684;2022-07-22T12:56:35;25.80;51.80
42755;DHT22;28407;51.830;5.684;2022-07-22T12:58:36;25.80;51.80
42755;DHT22;28407;51.830;5.684;2022-07-22T13:00:43;25.70;51.80
42755;DHT22;28407;51.830;5.684;2022-07-22T13:02:44;25.70;51.70
42755;DHT22;28407;51.830;5.684;2022-07-22T13:04:45;25.80;51.70
42755;DHT22;28407;51.830;5.684;2022-07-22T13:06:46;25.80;52.10
42755;DHT22;28407;51.830;5.684;2022-07-22T13:08:47;25.70;51.50
42755;DHT22;28407;51.830;5.684;2022-07-22T13:10:49;25.70;51.50
42755;DHT22;28407;51.830;5.684;2022-07-22T13:12:50;25.70;51.60
42755;DHT22;28407;51.830;5.684;2022-07-22T13:14:51;25.70;51.50